Time;durP1;ratioP1;P1;durP2;ratioP2;P2;SDS_P1;SDS_P2;PMS_P1;PMS_P2;Temp;Humidity;BMP_temperature;BMP_pressure;BME280_temperature;BME280_humidity;BME280_pressure;Samples;Min_cycle;Max_cycle;Signal;HPM_P1;HPM_P2
2020/12/04 00:02:17;;;;;;;42.23;18.40;;;;;;;-3.13;91.14;99287.41;5017023;28;20049;-66
2020/12/04 00:04:43;;;;;;;40.33;19.17;;;;;;;-3.19;91.30;99289.09;5013624;28;20068;-65
2020/12/04 00:07:09;;;;;;;38.67;17.97;;;;;;;-3.26;92.18;99282.97;5039639;28;20048;-65
2020/12/04 00:09:36;;;;;;;43.67;18.23;;;;;;;-3.29;92.90;99285.50;4998567;28;20041;-65
2020/12/04 00:12:02;;;;;;;41.30;18.37;;;;;;;-3.29;93.17;99288.06;5029976;28;20063;-65
2020/12/04 00:14:28;;;;;;;40.13;16.97;;;;;;;-3.35;92.57;99276.81;5018055;28;20037;-65
2020/12/04 00:16:55;;;;;;;40.77;19.33;;;;;;;-3.41;92.63;99281.03;5028394;28;20517;-65
2020/12/04 00:19:21;;;;;;;40.13;18.73;;;;;;;-3.36;93.03;99278.53;5000916;28;20062;-64
2020/12/04 00:21:51;;;;;;;41.10;19.00;;;;;;;-3.43;92.99;99284.47;5010435;28;20746;-66
2020/12/04 00:24:17;;;;;;;38.13;16.03;;;;;;;-3.55;93.14;99272.25;5021417;28;20030;-66
2020/12/04 00:26:43;;;;;;;38.17;16.47;;;;;;;-3.66;94.44;99278.97;5017436;28;20479;-65
2020/12/04 00:29:10;;;;;;;36.97;17.43;;;;;;;-3.76;94.66;99270.25;5038335;28;20063;-65
2020/12/04 00:31:36;;;;;;;30.63;15.20;;;;;;;-3.85;95.51;99274.41;5034013;28;20033;-65
2020/12/04 00:34:02;;;;;;;37.17;16.40;;;;;;;-3.93;96.18;99273.41;5021047;28;20600;-65
2020/12/04 00:36:28;;;;;;;37.67;17.50;;;;;;;-3.90;97.73;99276.03;5017844;28;20114;-65
2020/12/04 00:38:56;;;;;;;31.53;15.83;;;;;;;-3.99;96.97;99276.75;5019653;28;20045;-64
2020/12/04 00:41:23;;;;;;;36.53;16.97;;;;;;;-4.02;97.47;99285.34;5000980;28;20052;-65
2020/12/04 00:43:50;;;;;;;32.50;16.43;;;;;;;-4.06;97.06;99282.66;5038121;28;20042;-65
2020/12/04 00:46:16;;;;;;;38.47;18.63;;;;;;;-4.03;97.44;99275.00;5021503;28;20041;-65
2020/12/04 00:48:43;;;;;;;41.63;17.93;;;;;;;-3.94;97.64;99287.16;5004142;28;20106;-65
2020/12/04 00:54:08;;;;;;;41.50;16.57;;;;;;;-3.91;97.08;99267.44;4985037;28;20046;-69
2020/12/04 00:56:34;;;;;;;45.33;20.23;;;;;;;-3.72;97.07;99273.72;4986354;28;20100;-69
2020/12/04 00:59:00;;;;;;;43.40;18.10;;;;;;;-3.78;96.63;99265.91;4987802;28;20046;-69
2020/12/04 01:01:31;;;;;;;42.70;19.27;;;;;;;-3.80;97.09;99265.00;4985475;28;20034;-69
2020/12/04 01:03:58;;;;;;;40.00;18.70;;;;;;;-3.83;97.46;99257.22;4985263;28;20034;-69
2020/12/04 01:06:24;;;;;;;39.67;18.10;;;;;;;-3.92;96.98;99260.53;4987897;28;20589;-69
2020/12/04 01:08:50;;;;;;;35.40;16.97;;;;;;;-4.03;97.38;99252.66;4984041;28;20057;-69
2020/12/04 01:11:19;;;;;;;44.17;20.17;;;;;;;-3.99;98.27;99256.13;4987130;28;20096;-70
2020/12/04 01:13:45;;;;;;;37.90;17.90;;;;;;;-4.03;98.01;99247.50;4988165;28;20073;-69
2020/12/04 01:16:11;;;;;;;40.67;19.07;;;;;;;-4.02;98.35;99243.19;4987315;28;20046;-69
2020/12/04 01:18:38;;;;;;;45.13;20.30;;;;;;;-4.04;98.70;99237.13;4986740;28;20031;-69
2020/12/04 01:21:13;;;;;;;47.37;20.87;;;;;;;-3.95;98.71;99229.53;4987750;28;20053;-70
2020/12/04 01:23:40;;;;;;;47.47;19.80;;;;;;;-3.89;97.99;99221.88;4987717;28;20049;-70
2020/12/04 01:26:09;;;;;;;36.93;17.83;;;;;;;-3.93;97.48;99219.25;4987812;28;20447;-69
2020/12/04 01:28:36;;;;;;;43.83;18.47;;;;;;;-4.08;97.77;99227.63;4989524;28;20042;-69
2020/12/04 01:31:02;;;;;;;38.43;17.87;;;;;;;-4.17;98.84;99219.75;4991157;28;20066;-69
2020/12/04 01:33:28;;;;;;;44.80;18.23;;;;;;;-4.11;99.16;99223.28;4976228;28;20058;-69
2020/12/04 01:35:54;;;;;;;36.47;15.93;;;;;;;-4.16;98.49;99218.91;4990274;28;20031;-69
2020/12/04 01:38:20;;;;;;;43.93;19.23;;;;;;;-4.17;98.53;99212.88;4991333;28;20042;-69
2020/12/04 01:40:46;;;;;;;38.13;17.20;;;;;;;-4.16;99.30;99204.28;4989571;28;20039;-69
2020/12/04 01:43:12;;;;;;;38.03;18.17;;;;;;;-4.15;98.68;99197.41;4991894;28;20034;-69
2020/12/04 01:45:39;;;;;;;41.07;17.93;;;;;;;-4.15;99.25;99194.84;4991519;28;20046;-69
2020/12/04 01:48:05;;;;;;;48.17;18.37;;;;;;;-4.15;98.87;99198.28;4990718;28;20495;-69
2020/12/04 01:50:32;;;;;;;41.10;18.90;;;;;;;-4.14;99.39;99197.44;4989205;28;20077;-69
2020/12/04 01:52:58;;;;;;;45.03;20.60;;;;;;;-4.16;99.52;99186.25;4989571;28;20097;-69
2020/12/04 01:55:25;;;;;;;46.53;19.97;;;;;;;-4.03;98.97;99189.88;4989872;28;20122;-69
2020/12/04 01:57:53;;;;;;;40.53;17.30;;;;;;;-4.08;98.12;99174.31;4973956;28;20042;-69
2020/12/04 02:00:20;;;;;;;41.67;19.73;;;;;;;-4.05;98.26;99176.06;4988961;28;20038;-69
2020/12/04 02:02:47;;;;;;;37.73;17.27;;;;;;;-4.06;98.87;99174.34;4991384;28;20050;-69
2020/12/04 02:05:13;;;;;;;42.33;17.93;;;;;;;-4.13;98.94;99181.13;4991296;28;20038;-69
2020/12/04 02:07:54;;;;;;;37.27;17.83;;;;;;;-4.05;98.87;99173.50;4991371;28;20534;-70
2020/12/04 02:10:29;;;;;;;37.33;19.93;;;;;;;-4.05;98.21;99173.50;4990572;28;20045;-69
2020/12/04 02:12:55;;;;;;;;;;;;;;;-4.10;98.07;99170.88;4964251;28;20511;-69
2020/12/04 02:15:21;;;;;;;37.33;15.87;;;;;;;-4.11;97.83;99166.56;4988600;28;19934;-69
2020/12/04 02:17:54;;;;;;;38.73;16.57;;;;;;;-4.00;98.39;99175.28;4989558;28;20361;-69
2020/12/04 02:20:20;;;;;;;39.67;17.90;;;;;;;-4.02;98.67;99171.84;4988529;28;20078;-69
2020/12/04 02:22:46;;;;;;;34.70;17.47;;;;;;;-4.08;97.66;99161.44;4986327;28;20061;-69
2020/12/04 02:25:13;;;;;;;35.80;17.90;;;;;;;-4.01;98.07;99157.22;4966980;28;20158;-69
2020/12/04 02:27:49;;;;;;;35.90;17.80;;;;;;;-4.07;98.41;99154.56;4990466;28;20101;-69
2020/12/04 02:30:19;;;;;;;46.10;19.53;;;;;;;-3.96;98.39;99155.56;4988926;28;20491;-69
2020/12/04 02:32:46;;;;;;;39.83;18.87;;;;;;;-3.89;98.14;99143.59;4989499;28;20037;-69
2020/12/04 02:35:12;;;;;;;44.87;20.13;;;;;;;-3.84;98.12;99149.72;4988426;28;20112;-69
2020/12/04 02:37:38;;;;;;;42.60;17.80;;;;;;;-3.76;97.61;99136.06;4990500;28;20049;-69
2020/12/04 02:40:04;;;;;;;37.17;17.13;;;;;;;-3.81;97.10;99142.00;4989776;28;20398;-69
2020/12/04 02:42:31;;;;;;;36.40;17.07;;;;;;;-3.84;97.24;99141.97;4989133;28;20066;-69
2020/12/04 02:44:57;;;;;;;40.37;19.37;;;;;;;-3.84;98.06;99140.25;4989393;28;20491;-69
2020/12/04 02:47:24;;;;;;;38.63;19.13;;;;;;;-3.79;97.51;99137.72;4988794;28;20042;-69
2020/12/04 02:49:50;;;;;;;43.53;19.00;;;;;;;-3.79;98.72;99140.28;4990244;28;20042;-68
2020/12/04 02:52:24;;;;;;;42.90;19.37;;;;;;;-3.81;97.32;99147.16;4989281;28;20050;-69
2020/12/04 02:54:50;;;;;;;34.87;17.70;;;;;;;-3.81;97.82;99144.56;4972098;28;20554;-69
2020/12/04 02:57:16;;;;;;;39.70;18.27;;;;;;;-3.82;98.11;99142.84;4987302;28;20054;-69
2020/12/04 02:59:43;;;;;;;43.20;18.67;;;;;;;-3.75;98.20;99135.19;4973142;28;20173;-69
2020/12/04 03:02:09;;;;;;;40.03;19.00;;;;;;;-3.71;98.10;99129.22;4988295;28;20046;-69
2020/12/04 03:04:36;;;;;;;41.97;19.07;;;;;;;-3.65;98.49;99130.16;4987014;28;20039;-69
2020/12/04 03:07:03;;;;;;;42.67;19.90;;;;;;;-3.70;98.53;99133.56;4988458;28;20073;-69
2020/12/04 03:09:30;;;;;;;41.90;19.23;;;;;;;-3.59;97.86;99137.97;4970855;28;20484;-68
2020/12/04 03:11:57;;;;;;;41.27;18.20;;;;;;;-3.72;97.80;99127.50;4983312;28;20100;-69
2020/12/04 03:14:24;;;;;;;36.70;18.23;;;;;;;-3.81;98.85;99131.66;4972203;28;20419;-69
2020/12/04 03:16:52;;;;;;;46.93;20.27;;;;;;;-3.79;99.01;99129.97;4972497;28;20100;-69
2020/12/04 03:19:18;;;;;;;44.33;19.70;;;;;;;-3.60;99.29;99121.63;4964214;28;20381;-69
2020/12/04 03:21:44;;;;;;;37.73;19.30;;;;;;;-3.68;98.83;99112.91;4989089;28;20045;-69
2020/12/04 03:24:11;;;;;;;40.03;19.03;;;;;;;-3.73;99.32;99110.28;4989238;28;20125;-69
2020/12/04 03:26:37;;;;;;;44.03;19.67;;;;;;;-3.77;99.18;99110.25;4984687;28;20513;-69
2020/12/04 03:29:03;;;;;;;40.27;19.60;;;;;;;-3.77;99.10;99112.81;4988649;28;20096;-69
2020/12/04 03:31:29;;;;;;;46.13;20.13;;;;;;;-3.79;100.00;99111.91;4986045;28;20046;-69
2020/12/04 03:33:55;;;;;;;40.80;19.60;;;;;;;-3.70;99.23;99112.00;4987893;28;20051;-69
2020/12/04 03:36:22;;;;;;;42.37;20.63;;;;;;;-3.81;99.92;99108.44;4969851;28;20054;-69
2020/12/04 03:38:48;;;;;;;36.60;18.67;;;;;;;-3.82;100.00;99110.16;4960226;28;20058;-69
2020/12/04 03:41:14;;;;;;;48.80;21.73;;;;;;;-3.71;99.43;99099.97;4981858;28;20047;-69
2020/12/04 03:43:40;;;;;;;37.17;19.37;;;;;;;-3.87;98.95;99100.63;4986951;28;20074;-69
2020/12/04 03:46:09;;;;;;;44.00;18.27;;;;;;;-3.92;99.44;99089.41;4988644;28;20038;-69
2020/12/04 03:48:36;;;;;;;42.63;18.73;;;;;;;-4.01;99.88;99079.84;4954912;28;20073;-69
2020/12/04 03:51:02;;;;;;;45.43;20.53;;;;;;;-4.00;100.00;99085.00;4988290;28;20046;-69
2020/12/04 03:53:28;;;;;;;39.70;18.67;;;;;;;-4.11;100.00;99078.88;4986213;28;20046;-69
2020/12/04 03:55:54;;;;;;;47.20;21.00;;;;;;;-4.05;100.00;99072.91;4988681;28;20093;-69
2020/12/04 03:58:20;;;;;;;41.07;19.60;;;;;;;-4.17;100.00;99071.03;4987517;28;20034;-69
2020/12/04 04:00:47;;;;;;;44.63;21.50;;;;;;;-4.19;100.00;99061.56;4976458;28;20046;-69
2020/12/04 04:03:13;;;;;;;48.07;20.93;;;;;;;-4.11;100.00;99071.13;4986399;28;20039;-69
2020/12/04 04:05:39;;;;;;;42.67;19.60;;;;;;;-4.04;100.00;99066.88;4989413;28;20112;-69
2020/12/04 04:08:06;;;;;;;42.83;20.43;;;;;;;-4.08;100.00;99067.72;4989504;28;20042;-69
2020/12/04 04:10:32;;;;;;;47.43;20.07;;;;;;;-4.16;100.00;99064.19;4988770;28;20623;-68
2020/12/04 04:12:58;;;;;;;48.73;22.40;;;;;;;-4.11;100.00;99063.41;4989040;28;20531;-68
2020/12/04 04:15:24;;;;;;;44.77;19.80;;;;;;;-4.12;100.00;99058.19;4989474;28;20034;-68
2020/12/04 04:17:51;;;;;;;42.23;20.33;;;;;;;-4.09;100.00;99047.94;4989607;28;20104;-68
2020/12/04 04:20:17;;;;;;;42.40;18.40;;;;;;;-4.15;100.00;99046.13;4987520;28;20078;-68
2020/12/04 04:22:46;;;;;;;44.30;20.80;;;;;;;-4.26;100.00;99042.56;4988768;28;20034;-68
2020/12/04 04:25:15;;;;;;;42.80;18.50;;;;;;;-4.36;100.00;99048.47;4970773;28;20100;-68
2020/12/04 04:27:42;;;;;;;44.47;20.70;;;;;;;-4.34;100.00;99039.88;4968329;28;20469;-68
2020/12/04 04:30:08;;;;;;;43.00;20.50;;;;;;;-4.23;100.00;99032.28;4986968;28;20496;-68
2020/12/04 04:32:35;;;;;;;45.07;22.30;;;;;;;-4.18;100.00;99034.94;4987684;28;20042;-68
2020/12/04 04:35:03;;;;;;;41.97;19.80;;;;;;;-4.22;100.00;99031.44;4987267;28;20042;-69
2020/12/04 04:37:29;;;;;;;45.90;20.73;;;;;;;-4.23;100.00;99032.28;4970394;28;20880;-69
2020/12/04 04:39:55;;;;;;;39.77;19.07;;;;;;;-4.33;100.00;99021.00;4987808;28;20046;-68
2020/12/04 04:42:21;;;;;;;42.20;20.03;;;;;;;-4.31;100.00;99015.84;4988359;28;20046;-68
2020/12/04 04:44:47;;;;;;;44.70;20.20;;;;;;;-4.29;100.00;99012.47;4987391;28;20042;-68
2020/12/04 04:47:18;;;;;;;50.00;22.50;;;;;;;-4.24;100.00;99009.94;4987861;28;20088;-68
2020/12/04 04:49:46;;;;;;;48.63;21.23;;;;;;;-4.32;100.00;99003.81;4988379;28;20096;-68
2020/12/04 04:52:14;;;;;;;47.07;19.57;;;;;;;-4.36;100.00;98999.47;4983453;28;20042;-69
2020/12/04 04:54:44;;;;;;;38.53;19.67;;;;;;;-4.42;100.00;99008.00;4975044;28;20567;-68
2020/12/04 04:57:11;;;;;;;44.33;18.33;;;;;;;-4.55;100.00;98996.66;4968828;28;20035;-68
2020/12/04 04:59:38;;;;;;;43.70;19.00;;;;;;;-4.62;100.00;99004.31;4986307;28;20046;-69
2020/12/04 05:02:04;;;;;;;48.07;20.60;;;;;;;-4.55;100.00;99000.94;4987119;28;20065;-68
2020/12/04 05:04:50;;;;;;;40.93;20.47;;;;;;;-4.51;100.00;99000.16;4987551;28;20038;-69
2020/12/04 05:07:17;;;;;;;41.77;19.67;;;;;;;-4.40;100.00;98997.69;4968766;28;20088;-68
2020/12/04 05:09:44;;;;;;;44.03;21.43;;;;;;;-4.40;100.00;98995.97;4969669;28;20100;-68
2020/12/04 05:12:12;;;;;;;55.07;22.73;;;;;;;-4.31;100.00;98997.81;4988131;28;20034;-68
2020/12/04 05:14:38;;;;;;;40.77;19.83;;;;;;;-4.35;100.00;98996.06;4987106;28;20039;-67
2020/12/04 05:17:10;;;;;;;42.70;20.33;;;;;;;-4.39;100.00;98995.13;4986983;28;20042;-67
2020/12/04 05:19:38;;;;;;;43.70;20.30;;;;;;;-4.36;100.00;98996.91;4986076;28;20583;-67
2020/12/04 05:22:15;;;;;;;42.87;19.87;;;;;;;-4.43;100.00;98990.81;4953095;28;20082;-67
2020/12/04 05:24:43;;;;;;;49.23;22.50;;;;;;;-4.44;100.00;98986.50;4987121;28;20507;-68
2020/12/04 05:27:22;;;;;;;46.17;20.17;;;;;;;-4.45;100.00;98983.91;4987010;28;20042;-67
2020/12/04 05:29:48;;;;;;;41.30;19.63;;;;;;;-4.55;100.00;98977.75;4973836;28;20034;-66
2020/12/04 05:32:15;;;;;;;43.73;21.03;;;;;;;-4.61;100.00;98977.69;4967973;28;20042;-67
2020/12/04 05:34:42;;;;;;;40.60;19.43;;;;;;;-4.69;100.00;98979.28;4970967;28;20046;-67
2020/12/04 05:37:12;;;;;;;43.47;19.70;;;;;;;-4.75;100.00;98985.22;4986839;28;20062;-66
2020/12/04 05:39:45;;;;;;;45.90;20.13;;;;;;;-4.77;100.00;98978.31;4987155;28;20042;-68
2020/12/04 05:42:11;;;;;;;48.65;23.42;;;;;;;-4.70;100.00;98985.28;4986643;28;20057;-68
2020/12/04 05:44:52;;;;;;;46.30;21.47;;;;;;;-4.71;100.00;98979.25;4987314;28;20096;-68
2020/12/04 05:47:20;;;;;;;46.30;20.60;;;;;;;-4.80;100.00;98986.84;4974785;28;20046;-67
2020/12/04 05:49:47;;;;;;;48.90;21.17;;;;;;;-4.86;100.00;98982.50;4986053;28;20069;-67
2020/12/04 05:52:14;;;;;;;48.37;21.50;;;;;;;-4.89;100.00;98979.88;4968577;28;20081;-67
2020/12/04 05:54:44;;;;;;;42.53;20.00;;;;;;;-4.90;100.00;98982.44;4970011;28;20064;-67
2020/12/04 05:57:11;;;;;;;49.73;24.10;;;;;;;-4.83;100.00;98968.78;4988314;28;20030;-67
2020/12/04 05:59:40;;;;;;;51.40;23.50;;;;;;;-4.71;100.00;98961.22;4987742;28;20101;-68
2020/12/04 06:02:12;;;;;;;46.93;23.27;;;;;;;-4.74;100.00;98966.34;4986229;28;20046;-67
2020/12/04 06:04:52;;;;;;;54.80;24.60;;;;;;;-4.73;100.00;98962.91;4986801;28;20043;-67
2020/12/04 06:07:24;;;;;;;50.93;23.67;;;;;;;-4.78;100.00;98963.72;4986958;28;20440;-67
2020/12/04 06:09:57;;;;;;;56.63;24.17;;;;;;;-4.62;100.00;98968.22;4987572;28;20052;-67
2020/12/04 06:12:23;;;;;;;62.30;28.67;;;;;;;-4.60;100.00;98969.97;4986979;28;20081;-68
2020/12/04 06:14:50;;;;;;;55.93;26.50;;;;;;;-4.62;100.00;98966.50;4990119;28;20470;-68
2020/12/04 06:17:17;;;;;;;52.17;25.63;;;;;;;-4.63;100.00;98954.44;4991657;28;20444;-67
2020/12/04 06:19:44;;;;;;;61.33;27.43;;;;;;;-4.61;100.00;98955.34;4990450;28;20075;-67
2020/12/04 06:22:17;;;;;;;66.43;29.17;;;;;;;-4.59;100.00;98956.22;4990449;28;20039;-68
2020/12/04 06:24:56;;;;;;;57.22;27.15;;;;;;;-4.54;100.00;98954.59;4990376;28;20381;-67
2020/12/04 06:27:34;;;;;;;61.40;28.23;;;;;;;-4.54;100.00;98956.28;4991549;28;20053;-67
2020/12/04 06:30:01;;;;;;;70.90;27.53;;;;;;;-4.47;100.00;98952.94;4973981;28;20046;-68
2020/12/04 06:32:37;;;;;;;70.07;27.67;;;;;;;-4.43;100.00;98948.69;4990153;28;20046;-67
2020/12/04 06:35:04;;;;;;;59.87;28.27;;;;;;;-4.53;100.00;98953.75;4991878;28;20069;-66
2020/12/04 06:37:36;;;;;;;63.57;27.50;;;;;;;-4.53;100.00;98953.75;4991065;28;20046;-67
2020/12/04 06:40:28;;;;;;;60.53;27.87;;;;;;;-4.59;100.00;98945.94;4990975;28;20042;-67
2020/12/04 06:42:59;;;;;;;57.77;24.77;;;;;;;-4.67;100.00;98957.84;4990071;28;20045;-68
2020/12/04 06:45:46;;;;;;;58.80;26.80;;;;;;;-4.77;100.00;98948.28;4991704;28;20444;-68
2020/12/04 06:48:16;;;;;;;68.47;27.83;;;;;;;-4.73;100.00;98957.75;4974030;28;20395;-68
2020/12/04 06:50:44;;;;;;;56.97;26.67;;;;;;;-4.81;100.00;98957.66;4990889;28;20105;-68
2020/12/04 06:53:12;;;;;;;63.90;28.93;;;;;;;-4.74;100.00;98958.59;4990146;28;20092;-68
2020/12/04 06:55:39;;;;;;;75.90;32.47;;;;;;;-4.63;100.00;98953.59;5020123;22;20428;-87
2020/12/04 06:58:06;;;;;;;66.77;29.23;;;;;;;-4.69;100.00;98958.69;5060839;28;20396;-86
2020/12/04 07:00:33;;;;;;;70.70;30.00;;;;;;;-4.65;100.00;98963.00;5054905;28;20098;-87
2020/12/04 07:03:00;;;;;;;67.27;31.53;;;;;;;-4.65;100.00;98966.44;5038087;28;20040;-86
2020/12/04 07:05:27;;;;;;;76.07;32.37;;;;;;;-4.62;100.00;98971.66;5068448;28;20371;-87
2020/12/04 07:08:09;;;;;;;72.57;31.53;;;;;;;-4.63;100.00;98974.19;5018339;28;20194;-87
2020/12/04 07:10:36;;;;;;;66.03;31.47;;;;;;;-4.61;100.00;98965.66;5051769;28;20041;-87
2020/12/04 07:13:05;;;;;;;82.57;32.97;;;;;;;-4.50;100.00;98972.66;5054474;28;20041;-87
2020/12/04 07:15:32;;;;;;;73.37;32.30;;;;;;;-4.50;100.00;98970.94;5054472;28;20106;-87
2020/12/04 07:17:59;;;;;;;81.53;34.53;;;;;;;-4.35;100.00;98990.91;5054698;28;20044;-87
2020/12/04 07:20:32;;;;;;;68.10;32.73;;;;;;;-4.37;100.00;98977.09;5054469;28;20043;-87
2020/12/04 07:22:58;;;;;;;82.70;34.13;;;;;;;-4.31;100.00;98972.88;5071247;28;20397;-87
2020/12/04 07:25:25;;;;;;;72.43;32.57;;;;;;;-4.33;100.00;98974.59;5043165;28;20131;-87
2020/12/04 07:27:52;;;;;;;69.87;32.23;;;;;;;-4.37;100.00;98974.53;5053442;28;20049;-87
2020/12/04 07:30:21;;;;;;;71.33;32.67;;;;;;;-4.42;100.00;98974.47;5037736;28;20045;-87
2020/12/04 07:32:49;;;;;;;78.10;35.10;;;;;;;-4.28;100.00;98975.53;5054210;28;20054;-87
2020/12/04 07:35:17;;;;;;;87.73;37.00;;;;;;;-4.22;100.00;98981.56;5054217;28;20063;-87
2020/12/04 07:37:43;;;;;;;84.20;34.63;;;;;;;-4.19;100.00;98986.78;5038203;28;20044;-87
2020/12/04 07:40:09;;;;;;;78.87;33.50;;;;;;;-4.17;100.00;98991.09;5056097;28;20044;-87
2020/12/04 07:42:39;;;;;;;79.30;34.90;;;;;;;-4.02;100.00;98991.28;5036208;28;20037;-87
2020/12/04 07:45:05;;;;;;;81.53;35.07;;;;;;;-3.94;100.00;98986.22;5037497;28;20036;-87
2020/12/04 07:47:31;;;;;;;85.20;35.47;;;;;;;-3.87;100.00;99000.00;5054212;28;20375;-87
2020/12/04 07:50:01;;;;;;;77.13;34.30;;;;;;;-3.79;100.00;98993.22;5053762;28;20040;-87
2020/12/04 07:52:29;;;;;;;76.63;35.10;;;;;;;-3.76;100.00;99008.75;5037550;28;20059;-87
2020/12/04 07:55:03;;;;;;;71.60;34.63;;;;;;;-3.69;100.00;99008.84;5037410;28;20045;-88
2020/12/04 07:57:36;;;;;;;;;;;;;;;-3.58;100.00;99005.47;5054144;28;20098;-87
2020/12/04 08:00:06;;;;;;;83.27;32.43;;;;;;;-3.56;100.00;99004.63;5037175;28;19969;-87
2020/12/04 08:02:33;;;;;;;77.83;32.30;;;;;;;-3.52;100.00;99009.00;5034129;28;20080;-87
2020/12/04 08:04:59;;;;;;;74.63;35.40;;;;;;;-3.48;100.00;99008.16;5047450;28;20120;-87
2020/12/04 08:07:31;;;;;;;71.57;34.43;;;;;;;-3.36;100.00;98998.78;5053432;28;20124;-87
2020/12/04 08:09:59;;;;;;;73.93;32.50;;;;;;;-3.30;100.00;98991.09;5053662;28;20098;-87
2020/12/04 08:12:31;;;;;;;78.43;36.13;;;;;;;-3.22;100.00;98986.84;5037246;28;20044;-87
2020/12/04 08:14:59;;;;;;;70.57;33.03;;;;;;;-3.10;100.00;98986.09;5053671;28;20136;-87
2020/12/04 08:17:30;;;;;;;71.50;33.00;;;;;;;-3.00;100.00;98991.31;5069526;28;20059;-87
2020/12/04 08:19:57;;;;;;;67.20;32.37;;;;;;;-2.87;100.00;98984.50;5053335;28;20041;-87
2020/12/04 08:22:31;;;;;;;63.03;29.70;;;;;;;-2.65;100.00;98972.59;5053053;28;20045;-87
2020/12/04 08:25:05;;;;;;;65.72;31.92;;;;;;;-2.60;100.00;98979.53;5056612;28;20522;-87
2020/12/04 08:27:34;;;;;;;66.78;28.80;;;;;;;-2.49;100.00;98966.63;5048032;28;20052;-88
2020/12/04 08:30:05;;;;;;;65.83;29.73;;;;;;;-2.36;100.00;98965.81;5039745;28;20529;-87
2020/12/04 08:32:31;;;;;;;60.93;28.23;;;;;;;-2.27;100.00;98983.09;5049184;28;20036;-87
2020/12/04 08:35:35;;;;;;;64.00;29.60;;;;;;;-2.13;100.00;98988.31;5036503;28;20310;-87
2020/12/04 08:38:09;;;;;;;59.03;27.60;;;;;;;-2.02;100.00;98984.94;5044689;28;20148;-88
2020/12/04 08:40:38;;;;;;;52.38;26.38;;;;;;;-1.91;100.00;98986.69;5052931;28;20037;-87
2020/12/04 08:43:15;;;;;;;62.70;27.80;;;;;;;-1.82;100.00;98984.97;5033496;28;20045;-87
2020/12/04 08:45:46;;;;;;;58.90;28.50;;;;;;;-1.66;100.00;98988.47;5036260;28;20555;-88
2020/12/04 08:48:17;;;;;;;57.23;28.33;;;;;;;-1.52;100.00;98971.19;5052848;28;20047;-88
2020/12/04 08:50:44;;;;;;;54.30;27.27;;;;;;;-1.37;100.00;98959.97;5052597;28;20051;-88
2020/12/04 08:53:12;;;;;;;56.17;27.53;;;;;;;-1.17;100.00;98963.44;5052592;28;20103;-88
2020/12/04 08:55:44;;;;;;;52.70;26.73;;;;;;;-1.05;99.20;98965.16;5038743;28;20040;-88
2020/12/04 08:58:14;;;;;;;54.23;27.70;;;;;;;-0.95;99.19;98966.00;5052816;28;20097;-88
2020/12/04 09:00:41;;;;;;;54.77;26.13;;;;;;;-0.87;98.58;98965.13;5056106;28;20040;-88
2020/12/04 09:03:07;;;;;;;55.93;26.47;;;;;;;-0.88;98.00;98962.53;5032650;28;20052;-88
2020/12/04 09:05:33;;;;;;;56.03;27.17;;;;;;;-0.67;96.72;98964.25;5034383;28;20485;-88
2020/12/04 09:07:59;;;;;;;52.50;25.70;;;;;;;-0.54;97.05;98954.69;5036435;28;20045;-88
2020/12/04 09:10:26;;;;;;;50.50;26.40;;;;;;;-0.32;96.26;98946.81;5045096;28;20490;-89
2020/12/04 09:12:55;;;;;;;49.50;25.47;;;;;;;-0.04;94.92;98957.06;5023149;28;20049;-89
2020/12/04 09:15:23;;;;;;;53.90;25.77;;;;;;;0.03;92.84;98943.19;5032204;28;20076;-88
2020/12/04 09:17:49;;;;;;;44.13;22.90;;;;;;;0.48;92.48;98952.38;5048792;28;20082;-89
2020/12/04 09:20:15;;;;;;;45.60;22.40;;;;;;;0.61;90.46;98952.31;5035584;28;20123;-89
2020/12/04 09:22:42;;;;;;;46.17;23.90;;;;;;;0.49;89.93;98955.84;5052342;28;20128;-89
2020/12/04 09:25:10;;;;;;;42.33;23.00;;;;;;;1.05;90.76;98944.13;5035895;28;20045;-89
2020/12/04 09:27:38;;;;;;;44.43;23.07;;;;;;;1.46;88.07;98945.44;5044712;28;20044;-89
2020/12/04 09:30:05;;;;;;;41.77;21.97;;;;;;;1.78;87.46;98938.09;5051852;28;20414;-89
2020/12/04 09:32:32;;;;;;;41.90;22.03;;;;;;;2.78;85.06;98922.72;5035367;28;20055;-89
2020/12/04 09:34:58;;;;;;;36.30;20.40;;;;;;;4.15;81.51;98921.75;5035419;28;20052;-89
2020/12/04 09:37:30;;;;;;;39.03;21.07;;;;;;;6.05;74.50;98907.16;5035970;28;20051;-90
2020/12/04 09:40:03;;;;;;;33.87;18.23;;;;;;;7.15;65.96;98905.41;5024322;28;20045;-90
2020/12/04 09:42:29;;;;;;;35.03;20.60;;;;;;;7.66;65.66;98900.06;5046130;28;20400;-90
2020/12/04 09:44:56;;;;;;;32.08;18.60;;;;;;;7.58;62.00;98897.69;5048225;28;20486;-90
2020/12/04 09:47:24;;;;;;;30.33;20.33;;;;;;;7.27;59.76;98903.19;5052462;28;20045;-90
2020/12/04 09:49:51;;;;;;;29.42;18.42;;;;;;;6.63;60.31;98905.34;5053668;28;20055;-90
2020/12/04 09:52:18;;;;;;;29.08;18.67;;;;;;;6.47;63.54;98906.75;5043288;28;20055;-89
2020/12/04 09:54:46;;;;;;;32.80;19.83;;;;;;;5.58;66.11;98913.78;5056528;28;20490;-89
2020/12/04 09:57:14;;;;;;;27.98;18.15;;;;;;;4.77;68.88;98914.16;5056208;28;20443;-89
2020/12/04 09:59:40;;;;;;;30.53;18.50;;;;;;;3.67;72.28;98918.44;5036177;28;20040;-90
2020/12/04 10:02:08;;;;;;;33.97;19.73;;;;;;;3.64;73.23;98924.59;5039472;28;20041;-90
2020/12/04 10:04:35;;;;;;;27.87;18.13;;;;;;;3.35;74.30;98921.69;5042225;28;20072;-89
2020/12/04 10:07:02;;;;;;;29.47;18.37;;;;;;;3.07;76.38;98921.34;5072054;28;20418;-89
2020/12/04 10:09:29;;;;;;;31.97;19.03;;;;;;;2.74;77.67;98912.34;5030169;28;20037;-90
2020/12/04 10:11:56;;;;;;;32.67;18.50;;;;;;;2.57;79.50;98914.38;5039981;28;20048;-87
2020/12/04 10:14:24;;;;;;;29.70;19.27;;;;;;;2.34;80.15;98917.34;5027978;28;20452;-88
2020/12/04 10:16:51;;;;;;;30.83;19.00;;;;;;;2.40;80.72;98922.47;5049296;28;20056;-88
2020/12/04 10:19:18;;;;;;;31.57;18.80;;;;;;;2.18;81.37;98911.50;5044183;28;20133;-89
2020/12/04 10:21:45;;;;;;;33.40;19.07;;;;;;;2.06;82.08;98907.34;5039635;28;20138;-89
2020/12/04 10:24:13;;;;;;;33.07;19.00;;;;;;;2.10;82.99;98902.94;5055557;28;20037;-89
2020/12/04 10:26:40;;;;;;;35.87;18.73;;;;;;;2.20;82.81;98894.97;5054872;28;20036;-89
2020/12/04 10:29:07;;;;;;;32.33;18.20;;;;;;;2.20;82.97;98900.19;5054750;28;20048;-88
2020/12/04 10:31:34;;;;;;;36.30;20.17;;;;;;;2.47;80.99;98901.50;5052732;28;20080;-89
2020/12/04 10:34:01;;;;;;;33.60;20.30;;;;;;;2.51;80.99;98902.28;5021090;28;20183;-89
2020/12/04 10:36:31;;;;;;;31.50;18.60;;;;;;;2.47;80.24;98903.25;5024606;28;20058;-89
2020/12/04 10:38:59;;;;;;;31.47;17.77;;;;;;;2.40;81.04;98899.88;5053272;28;20052;-89
2020/12/04 10:41:37;;;;;;;33.80;18.63;;;;;;;2.21;81.64;98907.13;5036777;28;20051;-89
2020/12/04 10:44:04;;;;;;;39.03;19.67;;;;;;;1.93;82.61;98924.88;5053633;28;20241;-89
2020/12/04 10:46:31;;;;;;;36.73;19.60;;;;;;;1.94;83.17;98926.59;5036498;28;20139;-89
2020/12/04 10:48:58;;;;;;;31.47;17.93;;;;;;;1.88;83.06;98915.41;5036332;28;20052;-88
2020/12/04 10:51:24;;;;;;;36.30;20.73;;;;;;;1.75;84.22;98913.81;5052938;28;20043;-90
2020/12/04 10:53:51;;;;;;;38.33;19.03;;;;;;;1.73;84.47;98919.06;5069785;28;20055;-89
2020/12/04 10:56:20;;;;;;;32.20;19.13;;;;;;;1.57;85.45;98917.53;5041456;28;20067;-89
2020/12/04 10:58:47;;;;;;;37.13;19.93;;;;;;;1.56;85.89;98915.81;5023202;28;20094;-89
2020/12/04 11:01:15;;;;;;;36.77;21.40;;;;;;;1.49;86.18;98915.00;5033611;28;20044;-89
2020/12/04 11:06:20;;;;;;;38.20;22.07;;;;;;;1.44;86.15;98922.03;5059069;28;20414;-89
2020/12/04 11:08:49;;;;;;;40.83;22.40;;;;;;;1.27;86.87;98918.75;5036506;28;20053;-89
2020/12/04 11:11:17;;;;;;;42.43;22.27;;;;;;;1.31;86.94;98923.91;5036565;28;20321;-89
2020/12/04 11:13:47;;;;;;;43.03;23.50;;;;;;;1.37;86.64;98920.38;5037447;28;20044;-89
2020/12/04 11:16:14;;;;;;;39.53;21.37;;;;;;;1.25;87.57;98915.28;5052946;28;20044;-89
2020/12/04 11:18:40;;;;;;;33.07;19.87;;;;;;;1.19;87.97;98916.25;5037369;28;20048;-90
2020/12/04 11:21:07;;;;;;;45.40;24.67;;;;;;;1.17;87.56;98911.91;5053072;28;20044;-90
2020/12/04 11:23:33;;;;;;;44.07;22.43;;;;;;;1.05;88.91;98905.97;5036111;28;20144;-89
2020/12/04 11:25:59;;;;;;;39.70;21.23;;;;;;;1.08;88.69;98908.53;5040185;28;20111;-90
2020/12/04 11:28:25;;;;;;;43.60;22.57;;;;;;;1.04;88.67;98906.00;5039742;28;20523;-90